createdAt,value
2022-10-09T00:00:12.701Z,73939.84
2022-10-09T00:00:45.899Z,73939.84
2022-10-09T00:01:20.588Z,73943.84
2022-10-09T00:01:55.515Z,73943.84
2022-10-09T00:02:27.861Z,73939.84
2022-10-09T00:03:00.095Z,73947.84
2022-10-09T00:03:32.718Z,73939.84
2022-10-09T00:04:08.186Z,73941.84
2022-10-09T00:05:31.727Z,73939.84
2022-10-09T00:06:05.349Z,73943.84
2022-10-09T00:06:40.264Z,73939.84
2022-10-09T00:07:12.518Z,73943.84
2022-10-09T00:07:44.718Z,73935.88
2022-10-09T00:08:17.309Z,73937.88
2022-10-09T00:08:52.214Z,73939.84
2022-10-09T00:09:24.444Z,73939.84
2022-10-09T00:09:56.659Z,73931.88
2022-10-09T00:10:29.154Z,73935.88
2022-10-09T00:11:08.882Z,73935.88
2022-10-09T00:11:41.113Z,73935.88
2022-10-09T00:12:15.930Z,73935.88
2022-10-09T00:12:48.430Z,73933.88
2022-10-09T00:13:21.002Z,73937.88
2022-10-09T00:13:56.833Z,73931.88
2022-10-09T00:14:29.049Z,73935.88
2022-10-09T00:15:01.318Z,73935.88
2022-10-09T00:15:34.282Z,73935.88
2022-10-09T00:16:11.357Z,73939.84
2022-10-09T00:16:43.588Z,73939.84
2022-10-09T00:17:15.819Z,73937.88
2022-10-09T00:17:50.694Z,73943.84
2022-10-09T00:18:22.936Z,73943.84
2022-10-09T00:18:55.661Z,73939.84
2022-10-09T00:19:30.599Z,73943.84
2022-10-09T00:20:03.042Z,73949.84
2022-10-09T00:20:39.725Z,73947.84
2022-10-09T00:21:23.424Z,73947.84
2022-10-09T00:21:55.645Z,73943.84
2022-10-09T00:22:28.470Z,73947.84
2022-10-09T00:23:03.345Z,73943.84
2022-10-09T00:23:35.726Z,73939.84
2022-10-09T00:24:07.980Z,73943.84
2022-10-09T00:24:42.915Z,73947.84
2022-10-09T00:25:15.254Z,73947.84
2022-10-09T00:26:37.729Z,73939.84
2022-10-09T00:27:09.958Z,73943.84
2022-10-09T00:27:42.178Z,73947.84
2022-10-09T00:28:17.138Z,73947.84
2022-10-09T00:28:50.027Z,73947.84
2022-10-09T00:29:24.930Z,73945.84
2022-10-09T00:29:57.155Z,73949.84
2022-10-09T00:30:29.618Z,73943.84
2022-10-09T00:31:04.683Z,73947.84
2022-10-09T00:31:39.546Z,73947.84
2022-10-09T00:32:11.746Z,73943.84
2022-10-09T00:32:43.950Z,73943.84
2022-10-09T00:33:16.256Z,73947.84
2022-10-09T00:33:51.126Z,73947.84
2022-10-09T00:35:13.835Z,73955.84
2022-10-09T00:35:46.060Z,73949.84
2022-10-09T00:36:20.073Z,73947.84
2022-10-09T00:36:54.882Z,73947.84
2022-10-09T00:37:28.523Z,73951.84
2022-10-09T00:38:00.713Z,73957.81
2022-10-09T00:38:35.897Z,73957.81
2022-10-09T00:39:08.107Z,73963.81
2022-10-09T00:39:40.333Z,73959.81
2022-10-09T00:40:15.266Z,73955.84
2022-10-09T00:40:47.501Z,73959.81
2022-10-09T00:41:21.573Z,73959.81
2022-10-09T00:41:56.394Z,73959.81
2022-10-09T00:42:28.629Z,73955.84
2022-10-09T00:43:00.929Z,73961.81
2022-10-09T00:45:00.739Z,73959.81
2022-10-09T00:45:35.565Z,73959.81
2022-10-09T00:46:14.887Z,73963.81
2022-10-09T00:46:51.733Z,73955.84
2022-10-09T00:47:30.211Z,73959.81
2022-10-09T00:48:04.623Z,73957.81
2022-10-09T00:48:39.492Z,73951.84
2022-10-09T00:49:16.307Z,73947.84
2022-10-09T00:49:48.894Z,73955.84
2022-10-09T00:50:26.466Z,73951.84
2022-10-09T00:51:01.626Z,73951.84
2022-10-09T00:51:34.839Z,73955.84
2022-10-09T00:52:10.550Z,73953.84
2022-10-09T00:52:44.096Z,73951.84
2022-10-09T00:53:18.173Z,73957.81
2022-10-09T00:53:50.723Z,73953.84
2022-10-09T00:54:28.015Z,73951.84
2022-10-09T00:55:01.073Z,73955.84
2022-10-09T00:55:35.142Z,73951.84
2022-10-09T00:56:09.978Z,73947.84
2022-10-09T00:56:42.413Z,73957.81
2022-10-09T00:57:14.742Z,73949.84
2022-10-09T00:57:49.638Z,73951.84
2022-10-09T00:58:22.669Z,73955.84
2022-10-09T00:58:56.301Z,73955.84
2022-10-09T00:59:28.769Z,73951.84
2022-10-09T01:00:07.126Z,73947.84
2022-10-09T01:00:42.131Z,73945.84
2022-10-09T01:01:14.405Z,73947.84
2022-10-09T01:01:49.715Z,73949.84
2022-10-09T01:02:22.156Z,73939.84
2022-10-09T01:02:55.071Z,73943.84
2022-10-09T01:03:30.031Z,73939.84
2022-10-09T01:04:02.285Z,73943.84
2022-10-09T01:04:34.822Z,73947.84
2022-10-09T01:05:11.895Z,73943.84
2022-10-09T01:05:52.729Z,73943.84
2022-10-09T01:06:34.070Z,73945.84
2022-10-09T01:07:23.773Z,73945.84
2022-10-09T01:08:00.034Z,73947.84
2022-10-09T01:08:38.438Z,73951.84
2022-10-09T01:09:17.162Z,73951.84
2022-10-09T01:09:55.050Z,73951.84
2022-10-09T01:10:33.420Z,73947.84
2022-10-09T01:11:12.676Z,73947.84
2022-10-09T01:11:50.401Z,73947.84
2022-10-09T01:12:33.094Z,73947.84
2022-10-09T01:13:10.870Z,73951.84
2022-10-09T01:13:47.378Z,73947.84
2022-10-09T01:14:27.870Z,73951.84
2022-10-09T01:15:06.791Z,73949.84
2022-10-09T01:15:45.179Z,73947.84
2022-10-09T01:16:24.614Z,73951.84
2022-10-09T01:17:02.400Z,73947.84
2022-10-09T01:17:39.024Z,73947.84
2022-10-09T01:18:18.442Z,73947.84
2022-10-09T01:18:55.655Z,73947.84
2022-10-09T01:19:56.403Z,73947.84
2022-10-09T01:20:33.464Z,73943.84
2022-10-09T01:21:09.567Z,73943.84
2022-10-09T01:21:47.162Z,73947.84
2022-10-09T01:22:28.346Z,73943.84
2022-10-09T01:23:13.782Z,73941.84
2022-10-09T01:24:00.618Z,73947.84
2022-10-09T01:24:37.097Z,73941.84
2022-10-09T01:25:11.928Z,73943.84
2022-10-09T01:25:53.151Z,73943.84
2022-10-09T01:26:34.953Z,73943.84
2022-10-09T01:27:14.337Z,73945.84
2022-10-09T01:27:46.551Z,73939.84
2022-10-09T01:28:19.951Z,73943.84
2022-10-09T01:28:54.666Z,73941.84
2022-10-09T01:29:31.689Z,73939.84
2022-10-09T01:30:06.699Z,73943.84
2022-10-09T01:30:39.007Z,73939.84
2022-10-09T01:31:15.158Z,73939.84
2022-10-09T01:31:49.271Z,73937.88
2022-10-09T01:32:27.938Z,73939.84
2022-10-09T01:33:00.170Z,73939.84
2022-10-09T01:33:33.101Z,73947.84
2022-10-09T01:34:05.822Z,73939.84
2022-10-09T01:34:42.381Z,73947.84
2022-10-09T01:35:15.163Z,73939.84
2022-10-09T01:35:47.665Z,73939.84
2022-10-09T01:36:23.430Z,73939.84
2022-10-09T01:36:57.033Z,73939.84
2022-10-09T01:37:29.954Z,73939.84
2022-10-09T01:38:05.367Z,73935.88
2022-10-09T01:38:39.734Z,73941.84
2022-10-09T01:39:15.389Z,73939.84
2022-10-09T01:39:50.804Z,73933.88
2022-10-09T01:40:24.219Z,73939.84
2022-10-09T01:40:56.982Z,73941.84
2022-10-09T01:41:32.355Z,73941.84
2022-10-09T01:42:05.038Z,73935.88
2022-10-09T01:42:39.873Z,73937.88
2022-10-09T01:43:14.866Z,73939.84
2022-10-09T01:43:47.064Z,73937.88
2022-10-09T01:44:20.785Z,73935.88
2022-10-09T01:44:55.607Z,73935.88
2022-10-09T01:45:37.949Z,73935.88
2022-10-09T01:46:21.201Z,73933.88
2022-10-09T01:46:56.565Z,73935.88
2022-10-09T01:48:27.001Z,73933.88
2022-10-09T01:49:09.362Z,73935.88
2022-10-09T01:49:45.743Z,73933.88
2022-10-09T01:50:26.057Z,73929.88
2022-10-09T01:51:02.286Z,73941.84
2022-10-09T01:51:39.194Z,73935.88
2022-10-09T01:52:23.591Z,73935.88
2022-10-09T01:53:00.294Z,73935.88
2022-10-09T01:53:33.786Z,73935.88
2022-10-09T01:54:10.425Z,73927.88
2022-10-09T01:54:52.837Z,73931.88
2022-10-09T01:55:34.393Z,73931.88
2022-10-09T01:56:09.957Z,73923.88
2022-10-09T01:56:44.905Z,73927.88
2022-10-09T01:57:25.280Z,73929.88
2022-10-09T01:58:01.700Z,73927.88
2022-10-09T01:58:37.079Z,73931.88
2022-10-09T01:59:16.161Z,73923.88
2022-10-09T01:59:49.478Z,73933.88
2022-10-09T02:00:22.178Z,73931.88
2022-10-09T02:01:01.618Z,73931.88
2022-10-09T02:01:35.841Z,73931.88
2022-10-09T02:02:08.368Z,73931.88
2022-10-09T02:02:41.945Z,73923.88
2022-10-09T02:03:21.047Z,73925.88
2022-10-09T02:03:53.888Z,73927.88
2022-10-09T02:04:26.493Z,73927.88
2022-10-09T02:05:01.724Z,73919.91
2022-10-09T02:05:34.483Z,73923.88
2022-10-09T02:06:08.468Z,73921.88
2022-10-09T02:06:45.001Z,73927.88
2022-10-09T02:07:18.377Z,73923.88
2022-10-09T02:07:50.622Z,73919.91
2022-10-09T02:08:26.903Z,73915.91
2022-10-09T02:08:59.673Z,73921.88
2022-10-09T02:09:32.100Z,73917.91
2022-10-09T02:10:09.502Z,73919.91
2022-10-09T02:10:43.217Z,73917.91
2022-10-09T02:11:15.846Z,73919.91
2022-10-09T02:11:56.070Z,73915.91
2022-10-09T02:12:30.505Z,73925.88
2022-10-09T02:13:02.814Z,73927.88
2022-10-09T02:13:38.545Z,73923.88
2022-10-09T02:14:10.990Z,73921.88
2022-10-09T02:14:43.233Z,73919.91
2022-10-09T02:15:16.309Z,73923.88
2022-10-09T02:15:54.665Z,73923.88
2022-10-09T02:16:36.802Z,73927.88
2022-10-09T02:18:16.413Z,73925.88
2022-10-09T02:18:55.023Z,73921.88
2022-10-09T02:19:30.802Z,73929.88
2022-10-09T02:20:10.314Z,73927.88
2022-10-09T02:20:45.869Z,73927.88
2022-10-09T02:21:22.734Z,73935.88
2022-10-09T02:22:00.042Z,73927.88
2022-10-09T02:22:33.593Z,73931.88
2022-10-09T02:23:08.213Z,73941.84
2022-10-09T02:23:44.952Z,73935.88
2022-10-09T02:24:19.722Z,73941.84
2022-10-09T02:24:52.818Z,73939.84
2022-10-09T02:25:27.773Z,73931.88
2022-10-09T02:26:00.050Z,73937.88
2022-10-09T02:26:32.992Z,73935.88
2022-10-09T02:27:08.474Z,73935.88
2022-10-09T02:27:40.781Z,73935.88
2022-10-09T02:28:13.093Z,73939.84
2022-10-09T02:28:48.223Z,73937.88
2022-10-09T02:29:20.740Z,73929.88
2022-10-09T02:29:53.150Z,73933.88
2022-10-09T02:30:28.451Z,73929.88
2022-10-09T02:31:04.350Z,73929.88
2022-10-09T02:31:38.040Z,73915.91
2022-10-09T02:32:13.177Z,73907.91
2022-10-09T02:32:45.493Z,73899.94
2022-10-09T02:33:27.314Z,73895.94
2022-10-09T02:34:03.752Z,73881.97
2022-10-09T02:34:36.036Z,73879.97
2022-10-09T02:35:09.161Z,73877.97
2022-10-09T02:35:44.033Z,73867.97
2022-10-09T02:36:16.450Z,73866.00
2022-10-09T02:36:48.735Z,73862.00
2022-10-09T02:37:23.601Z,73856.00
2022-10-09T02:37:55.847Z,73852.00
2022-10-09T02:38:28.114Z,73852.00
2022-10-09T02:39:03.222Z,73846.03
2022-10-09T02:39:35.482Z,73844.03
2022-10-09T02:40:10.855Z,73842.03
2022-10-09T02:40:45.911Z,73836.03
2022-10-09T02:41:18.205Z,73834.03
2022-10-09T02:41:50.426Z,73836.03
2022-10-09T02:42:26.087Z,73828.06
2022-10-09T02:42:58.662Z,73828.06
2022-10-09T02:43:30.926Z,73820.06
2022-10-09T02:44:06.261Z,73824.06
2022-10-09T02:44:38.458Z,73824.06
2022-10-09T02:45:11.230Z,73824.06
2022-10-09T02:45:46.080Z,73824.06
2022-10-09T02:46:18.952Z,73824.06
2022-10-09T02:46:51.484Z,73816.06
2022-10-09T02:47:26.457Z,73816.06
2022-10-09T02:47:58.669Z,73820.06
2022-10-09T02:48:33.473Z,73824.06
2022-10-09T02:49:08.536Z,73820.06
2022-10-09T02:49:40.782Z,73820.06
2022-10-09T02:50:13.014Z,73820.06
2022-10-09T02:50:47.855Z,73812.09
2022-10-09T02:51:20.838Z,73816.06
2022-10-09T02:51:53.081Z,73816.06
2022-10-09T02:52:27.970Z,73816.06
2022-10-09T02:53:00.197Z,73812.09
2022-10-09T02:53:32.442Z,73812.09
2022-10-09T02:54:07.926Z,73818.06
2022-10-09T02:54:40.158Z,73808.09
2022-10-09T02:55:12.392Z,73810.09
2022-10-09T02:55:47.203Z,73808.09
2022-10-09T02:56:19.606Z,73808.09
2022-10-09T02:56:51.894Z,73808.09
2022-10-09T02:57:26.710Z,73808.09
2022-10-09T02:57:58.981Z,73804.09
2022-10-09T02:58:32.046Z,73804.09
2022-10-09T02:59:07.074Z,73802.09
2022-10-09T02:59:39.308Z,73800.09
2022-10-09T03:00:13.165Z,73802.09
2022-10-09T03:00:51.281Z,73796.09
2022-10-09T03:01:24.263Z,73796.09
2022-10-09T03:01:56.622Z,73794.13
2022-10-09T03:02:31.620Z,73804.09
2022-10-09T03:03:04.172Z,73798.09
2022-10-09T03:03:39.337Z,73788.13
2022-10-09T03:04:14.153Z,73796.09
2022-10-09T03:04:46.373Z,73800.09
2022-10-09T03:05:18.653Z,73796.09
2022-10-09T03:06:00.225Z,73792.13
2022-10-09T03:06:35.081Z,73790.13
2022-10-09T03:07:07.297Z,73788.13
2022-10-09T03:07:39.506Z,73790.13
2022-10-09T03:08:14.472Z,73792.13
2022-10-09T03:09:37.755Z,73788.13
2022-10-09T03:10:10.462Z,73784.13
2022-10-09T03:10:42.690Z,73794.13
2022-10-09T03:11:16.352Z,73788.13
2022-10-09T03:11:51.197Z,73788.13
2022-10-09T03:12:23.406Z,73792.13
2022-10-09T03:12:55.706Z,73790.13
2022-10-09T03:13:27.991Z,73788.13
2022-10-09T03:14:02.870Z,73788.13
2022-10-09T03:14:35.422Z,73784.13
2022-10-09T03:15:09.503Z,73776.16
2022-10-09T03:15:44.564Z,73764.16
2022-10-09T03:16:18.332Z,73758.19
2022-10-09T03:16:50.734Z,73750.19
2022-10-09T03:17:22.977Z,73746.19
2022-10-09T03:17:57.814Z,73744.19
2022-10-09T03:18:30.564Z,73738.22
2022-10-09T03:19:02.822Z,73732.22
2022-10-09T03:19:37.683Z,73720.25
2022-10-09T03:20:10.322Z,73712.25
2022-10-09T03:20:42.538Z,73708.25
2022-10-09T03:21:17.009Z,73704.28
2022-10-09T03:21:51.830Z,73688.31
2022-10-09T03:22:24.143Z,73686.31
2022-10-09T03:22:56.593Z,73678.31
2022-10-09T03:23:30.038Z,73672.34
2022-10-09T03:24:04.850Z,73668.34
2022-10-09T03:24:39.654Z,73652.38
2022-10-09T03:25:11.898Z,73656.34
2022-10-09T03:25:46.702Z,73648.38
2022-10-09T03:26:20.325Z,73646.38
2022-10-09T03:26:55.131Z,73644.38
2022-10-09T03:27:27.409Z,73644.38
2022-10-09T03:27:59.614Z,73644.38
2022-10-09T03:28:32.222Z,73632.41
2022-10-09T03:29:07.093Z,73628.41
2022-10-09T03:29:39.314Z,73628.41
2022-10-09T03:30:12.387Z,73630.41
2022-10-09T03:30:44.634Z,73626.41
2022-10-09T03:31:50.055Z,73624.41
2022-10-09T03:32:12.824Z,73620.41
2022-10-09T03:32:47.985Z,73622.41
2022-10-09T03:33:20.892Z,73620.41
2022-10-09T03:33:53.104Z,73618.44
2022-10-09T03:34:28.098Z,73612.44
2022-10-09T03:35:00.315Z,73616.44
2022-10-09T03:35:32.540Z,73620.41
2022-10-09T03:36:08.934Z,73618.44
2022-10-09T03:36:44.808Z,73614.44
2022-10-09T03:37:17.114Z,73614.44
2022-10-09T03:37:49.338Z,73610.44
2022-10-09T03:38:24.201Z,73612.44
2022-10-09T03:38:56.413Z,73616.44
2022-10-09T03:39:28.626Z,73606.44
2022-10-09T03:40:51.808Z,73608.44
2022-10-09T03:41:24.046Z,73606.44
2022-10-09T03:41:56.308Z,73612.44
2022-10-09T03:42:31.142Z,73604.44
2022-10-09T03:43:03.735Z,73612.44
2022-10-09T03:43:36.973Z,73604.44
2022-10-09T03:44:11.804Z,73610.44
2022-10-09T03:44:44.062Z,73604.44
2022-10-09T03:45:16.356Z,73612.44
2022-10-09T03:45:48.557Z,73610.44
2022-10-09T03:46:23.458Z,73604.44
2022-10-09T03:46:55.717Z,73608.44
2022-10-09T03:47:27.937Z,73604.44
2022-10-09T03:48:33.613Z,73600.47
2022-10-09T03:49:06.230Z,73614.44
2022-10-09T03:49:38.805Z,73608.44
2022-10-09T03:50:13.993Z,73604.44
2022-10-09T03:50:46.546Z,73604.44
2022-10-09T03:51:19.166Z,73608.44
2022-10-09T03:51:54.010Z,73604.44
2022-10-09T03:52:26.257Z,73604.44
2022-10-09T03:52:58.623Z,73600.47
2022-10-09T03:53:34.042Z,73600.47
2022-10-09T03:54:06.705Z,73600.47
2022-10-09T03:54:38.922Z,73598.47
2022-10-09T03:55:13.737Z,73604.44
2022-10-09T03:55:48.565Z,73602.47
2022-10-09T03:56:20.774Z,73604.44
2022-10-09T03:56:55.616Z,73604.44
2022-10-09T03:57:27.864Z,73600.47
2022-10-09T03:58:00.094Z,73608.44
2022-10-09T03:58:34.958Z,73598.47
2022-10-09T03:59:09.621Z,73600.47
2022-10-09T03:59:41.848Z,73600.47
2022-10-09T04:00:18.068Z,73604.44
2022-10-09T04:00:52.238Z,73612.44
2022-10-09T04:01:30.564Z,73616.44
2022-10-09T04:02:04.075Z,73626.41
2022-10-09T04:02:36.533Z,73624.41
2022-10-09T04:03:11.466Z,73638.38
2022-10-09T04:03:43.788Z,73652.38
2022-10-09T04:04:20.571Z,73654.38
2022-10-09T04:04:53.381Z,73668.34
2022-10-09T04:05:29.155Z,73680.31
2022-10-09T04:06:09.470Z,73688.31
2022-10-09T04:06:41.800Z,73696.28
2022-10-09T04:07:14.053Z,73704.28
2022-10-09T04:07:51.087Z,73704.28
2022-10-09T04:08:23.498Z,73716.25
2022-10-09T04:08:56.853Z,73724.22
2022-10-09T04:09:29.151Z,73730.22
2022-10-09T04:10:04.021Z,73736.22
2022-10-09T04:10:36.346Z,73740.22
2022-10-09T04:11:11.155Z,73742.19
2022-10-09T04:11:46.038Z,73746.19
2022-10-09T04:12:18.314Z,73748.19
2022-10-09T04:12:50.817Z,73750.19
2022-10-09T04:13:25.829Z,73758.19
2022-10-09T04:13:58.109Z,73756.19
2022-10-09T04:14:33.441Z,73770.16
2022-10-09T04:15:09.184Z,73768.16
2022-10-09T04:15:41.410Z,73764.16
2022-10-09T04:16:13.754Z,73768.16
2022-10-09T04:16:48.773Z,73772.16
2022-10-09T04:17:21.624Z,73770.16
2022-10-09T04:17:54.888Z,73776.16
2022-10-09T04:18:31.665Z,73776.16
2022-10-09T04:19:03.896Z,73776.16
2022-10-09T04:19:36.365Z,73776.16
2022-10-09T04:20:11.993Z,73780.13
2022-10-09T04:20:45.210Z,73774.16
2022-10-09T04:21:17.531Z,73780.13
2022-10-09T04:21:53.016Z,73778.13
2022-10-09T04:22:25.359Z,73774.16
2022-10-09T04:22:57.568Z,73780.13
2022-10-09T04:23:32.374Z,73780.13
2022-10-09T04:24:08.400Z,73778.13
2022-10-09T04:24:40.651Z,73784.13
2022-10-09T04:25:15.521Z,73780.13
2022-10-09T04:25:47.795Z,73780.13
2022-10-09T04:26:27.521Z,73780.13
2022-10-09T04:27:02.443Z,73780.13
2022-10-09T04:27:34.665Z,73780.13
2022-10-09T04:28:10.098Z,73788.13
2022-10-09T04:28:48.321Z,73786.13
2022-10-09T04:29:21.092Z,73786.13
2022-10-09T04:29:53.381Z,73784.13
2022-10-09T04:30:26.402Z,73778.13
2022-10-09T04:31:34.333Z,73786.13
2022-10-09T04:32:09.787Z,73784.13
2022-10-09T04:32:42.395Z,73784.13
2022-10-09T04:33:18.849Z,73782.13
2022-10-09T04:33:56.740Z,73784.13
2022-10-09T04:34:38.246Z,73788.13
2022-10-09T04:35:16.718Z,73788.13
2022-10-09T04:35:51.222Z,73784.13
2022-10-09T04:36:28.885Z,73792.13
2022-10-09T04:37:04.054Z,73780.13
2022-10-09T04:37:36.912Z,73790.13
2022-10-09T04:38:09.232Z,73780.13
2022-10-09T04:38:41.515Z,73784.13
2022-10-09T04:39:17.482Z,73784.13
2022-10-09T04:40:39.516Z,73784.13
2022-10-09T04:41:11.761Z,73780.13
2022-10-09T04:41:44.021Z,73782.13
2022-10-09T04:42:18.830Z,73780.13
2022-10-09T04:42:51.544Z,73788.13
2022-10-09T04:43:24.262Z,73788.13
2022-10-09T04:44:00.028Z,73788.13
2022-10-09T04:44:32.259Z,73778.13
2022-10-09T04:45:08.893Z,73790.13
2022-10-09T04:45:44.186Z,73782.13
2022-10-09T04:46:16.609Z,73780.13
2022-10-09T04:46:50.722Z,73780.13
2022-10-09T04:47:26.774Z,73780.13
2022-10-09T04:48:03.598Z,73780.13
2022-10-09T04:48:39.140Z,73784.13
2022-10-09T04:49:15.863Z,73780.13
2022-10-09T04:49:50.123Z,73780.13
2022-10-09T04:50:25.280Z,73784.13
2022-10-09T04:51:10.655Z,73784.13
2022-10-09T04:51:44.430Z,73774.16
2022-10-09T04:52:20.201Z,73780.13
2022-10-09T04:52:52.781Z,73782.13
2022-10-09T04:53:25.460Z,73784.13
2022-10-09T04:54:03.241Z,73780.13
2022-10-09T04:54:36.132Z,73780.13
2022-10-09T04:55:11.784Z,73774.16
2022-10-09T04:55:55.505Z,73780.13
2022-10-09T04:56:28.089Z,73778.13
2022-10-09T04:57:04.508Z,73780.13
2022-10-09T04:58:27.297Z,73780.13
2022-10-09T04:58:59.549Z,73784.13
2022-10-09T04:59:31.777Z,73776.16
2022-10-09T05:00:07.555Z,73786.13
2022-10-09T05:00:40.919Z,73784.13
2022-10-09T05:01:15.277Z,73796.09
2022-10-09T05:01:50.266Z,73802.09
2022-10-09T05:02:22.632Z,73818.06
2022-10-09T05:02:56.947Z,73826.06
2022-10-09T05:03:32.051Z,73834.03
2022-10-09T05:04:04.356Z,73840.03
2022-10-09T05:04:37.933Z,73856.00
2022-10-09T05:05:15.737Z,73860.00
2022-10-09T05:05:48.013Z,73869.97
2022-10-09T05:06:21.877Z,73875.97
2022-10-09T05:07:14.198Z,73879.97
2022-10-09T05:07:49.084Z,73887.94
2022-10-09T05:08:21.299Z,73895.94
2022-10-09T05:08:54.282Z,73891.94
2022-10-09T05:09:29.152Z,73891.94
2022-10-09T05:10:05.553Z,73895.94
2022-10-09T05:10:39.774Z,73895.94
2022-10-09T05:11:14.171Z,73895.94
2022-10-09T05:11:49.031Z,73895.94
2022-10-09T05:12:24.276Z,73895.94
2022-10-09T05:12:57.989Z,73891.94
2022-10-09T05:13:40.981Z,73899.94
2022-10-09T05:14:13.206Z,73891.94
2022-10-09T05:15:39.478Z,73897.94
2022-10-09T05:16:13.970Z,73899.94
2022-10-09T05:17:12.093Z,73899.94
2022-10-09T05:18:33.190Z,73901.94
2022-10-09T05:19:05.430Z,73897.94
2022-10-09T05:19:37.679Z,73899.94
2022-10-09T05:20:13.102Z,73899.94
2022-10-09T05:20:45.349Z,73895.94
2022-10-09T05:21:18.331Z,73893.94
2022-10-09T05:21:55.967Z,73895.94
2022-10-09T05:22:28.374Z,73887.94
2022-10-09T05:23:02.021Z,73891.94
2022-10-09T05:23:37.673Z,73895.94
2022-10-09T05:24:12.798Z,73899.94
2022-10-09T05:24:48.482Z,73895.94
2022-10-09T05:25:23.041Z,73897.94
2022-10-09T05:26:02.342Z,73889.94
2022-10-09T05:26:38.845Z,73893.94
2022-10-09T05:27:11.074Z,73895.94
2022-10-09T05:27:43.937Z,73895.94
2022-10-09T05:28:21.395Z,73897.94
2022-10-09T05:28:54.659Z,73891.94
2022-10-09T05:29:30.330Z,73893.94
2022-10-09T05:30:07.367Z,73889.94
2022-10-09T05:30:41.826Z,73891.94
2022-10-09T05:31:18.440Z,73889.94
2022-10-09T05:31:55.433Z,73891.94
2022-10-09T05:32:27.717Z,73893.94
2022-10-09T05:32:59.981Z,73891.94
2022-10-09T05:33:35.144Z,73885.94
2022-10-09T05:34:10.121Z,73889.94
2022-10-09T05:34:42.458Z,73893.94
2022-10-09T05:35:19.425Z,73887.94
2022-10-09T05:35:56.868Z,73881.97
2022-10-09T05:36:32.413Z,73881.97
2022-10-09T05:37:04.648Z,73883.94
2022-10-09T05:37:39.501Z,73881.97
2022-10-09T05:38:11.701Z,73883.94
2022-10-09T05:38:44.073Z,73879.97
2022-10-09T05:39:19.265Z,73881.97
2022-10-09T05:39:51.488Z,73883.94
2022-10-09T05:40:28.338Z,73877.97
2022-10-09T05:41:06.481Z,73885.94
2022-10-09T05:41:38.702Z,73883.94
2022-10-09T05:42:11.043Z,73879.97
2022-10-09T05:42:46.428Z,73887.94
2022-10-09T05:43:18.840Z,73879.97
2022-10-09T05:43:51.203Z,73883.94
2022-10-09T05:44:26.182Z,73891.94
2022-10-09T05:44:58.554Z,73891.94
2022-10-09T05:45:30.867Z,73887.94
2022-10-09T05:46:07.516Z,73891.94
2022-10-09T05:46:42.362Z,73895.94
2022-10-09T05:47:17.957Z,73891.94
2022-10-09T05:47:50.199Z,73889.94
2022-10-09T05:48:23.114Z,73891.94
2022-10-09T05:49:02.347Z,73891.94
2022-10-09T05:49:34.614Z,73891.94
2022-10-09T05:50:07.620Z,73891.94
2022-10-09T05:50:42.438Z,73887.94
2022-10-09T05:51:17.030Z,73877.97
2022-10-09T05:51:50.061Z,73879.97
2022-10-09T05:52:25.015Z,73879.97
2022-10-09T05:52:57.346Z,73879.97
2022-10-09T05:53:29.553Z,73871.97
2022-10-09T05:54:04.841Z,73871.97
2022-10-09T05:54:37.058Z,73869.97
2022-10-09T05:55:10.198Z,73867.97
2022-10-09T05:55:45.001Z,73867.97
2022-10-09T05:56:18.962Z,73871.97
2022-10-09T05:56:51.529Z,73866.00
2022-10-09T05:57:26.334Z,73873.97
2022-10-09T05:57:58.534Z,73867.97
2022-10-09T05:58:30.758Z,73867.97
2022-10-09T05:59:07.772Z,73867.97
2022-10-09T05:59:39.990Z,73875.97
2022-10-09T06:00:13.815Z,73871.97
2022-10-09T06:00:48.622Z,73871.97
2022-10-09T06:01:21.686Z,73871.97
2022-10-09T06:01:56.881Z,73867.97
2022-10-09T06:02:29.284Z,73866.00
2022-10-09T06:03:01.609Z,73867.97
2022-10-09T06:03:36.435Z,73875.97
2022-10-09T06:04:14.149Z,73875.97
2022-10-09T06:04:49.003Z,73869.97
2022-10-09T06:05:21.758Z,73871.97
2022-10-09T06:05:53.998Z,73867.97
2022-10-09T06:06:30.750Z,73871.97
2022-10-09T06:07:02.994Z,73875.97
2022-10-09T06:07:35.235Z,73867.97
2022-10-09T06:08:10.049Z,73871.97
2022-10-09T06:08:42.294Z,73871.97
2022-10-09T06:09:15.641Z,73867.97
2022-10-09T06:09:50.496Z,73860.00
2022-10-09T06:10:22.706Z,73860.00
2022-10-09T06:10:54.906Z,73860.00
2022-10-09T06:11:31.822Z,73860.00
2022-10-09T06:12:04.383Z,73856.00
2022-10-09T06:12:36.641Z,73854.00
2022-10-09T06:13:08.853Z,73860.00
2022-10-09T06:13:43.959Z,73850.00
2022-10-09T06:14:16.203Z,73854.00
2022-10-09T06:14:48.438Z,73856.00
2022-10-09T06:15:23.283Z,73850.00
2022-10-09T06:15:55.621Z,73848.03
2022-10-09T06:16:29.540Z,73848.03
2022-10-09T06:17:04.518Z,73846.03
2022-10-09T06:17:36.800Z,73852.00
2022-10-09T06:18:09.009Z,73844.03
2022-10-09T06:18:49.085Z,73852.00
2022-10-09T06:19:24.569Z,73852.00
2022-10-09T06:19:56.913Z,73852.00
2022-10-09T06:20:31.782Z,73852.00
2022-10-09T06:21:04.371Z,73854.00
2022-10-09T06:21:36.644Z,73844.03
2022-10-09T06:22:11.530Z,73846.03
2022-10-09T06:22:43.747Z,73844.03
2022-10-09T06:23:15.967Z,73850.00
2022-10-09T06:23:52.762Z,73848.03
2022-10-09T06:24:29.012Z,73848.03
2022-10-09T06:25:01.606Z,73848.03
2022-10-09T06:25:33.833Z,73848.03
2022-10-09T06:26:10.777Z,73848.03
2022-10-09T06:26:43.006Z,73856.00
2022-10-09T06:27:15.309Z,73852.00
2022-10-09T06:27:50.242Z,73844.03
2022-10-09T06:28:22.926Z,73852.00
2022-10-09T06:28:55.468Z,73844.03
2022-10-09T06:29:30.293Z,73844.03
2022-10-09T06:30:02.521Z,73854.00
2022-10-09T06:30:38.511Z,73848.03
2022-10-09T06:31:12.694Z,73848.03
2022-10-09T06:31:47.570Z,73850.00
2022-10-09T06:32:19.826Z,73848.03
2022-10-09T06:32:52.356Z,73852.00
2022-10-09T06:33:27.350Z,73844.03
2022-10-09T06:34:00.817Z,73848.03
2022-10-09T06:34:38.252Z,73848.03
2022-10-09T06:35:10.534Z,73846.03
2022-10-09T06:35:42.794Z,73852.00
2022-10-09T06:36:20.069Z,73852.00
2022-10-09T06:36:52.286Z,73852.00
2022-10-09T06:37:27.114Z,73850.00
2022-10-09T06:37:59.327Z,73848.03
2022-10-09T06:38:31.641Z,73844.03
2022-10-09T06:39:09.598Z,73846.03
2022-10-09T06:39:41.838Z,73854.00
2022-10-09T06:40:14.193Z,73852.00
2022-10-09T06:40:49.009Z,73852.00
2022-10-09T06:41:22.983Z,73848.03
2022-10-09T06:41:55.206Z,73852.00
2022-10-09T06:42:48.102Z,73848.03
2022-10-09T06:43:22.824Z,73852.00
2022-10-09T06:43:57.154Z,73852.00
2022-10-09T06:44:32.366Z,73848.03
2022-10-09T06:45:55.277Z,73850.00
2022-10-09T06:46:30.276Z,73848.03
2022-10-09T06:47:05.118Z,73848.03
2022-10-09T06:47:37.686Z,73848.03
2022-10-09T06:48:10.264Z,73848.03
2022-10-09T06:48:45.710Z,73854.00
2022-10-09T06:49:18.264Z,73852.00
2022-10-09T06:49:56.367Z,73846.03
2022-10-09T06:50:28.985Z,73852.00
2022-10-09T06:51:02.632Z,73852.00
2022-10-09T06:51:38.565Z,73848.03
2022-10-09T06:52:11.137Z,73846.03
2022-10-09T06:52:43.717Z,73850.00
2022-10-09T06:53:16.409Z,73848.03
2022-10-09T06:53:52.905Z,73848.03
2022-10-09T06:54:25.458Z,73844.03
2022-10-09T06:55:00.727Z,73844.03
2022-10-09T06:55:33.593Z,73844.03
2022-10-09T06:56:08.974Z,73846.03
2022-10-09T06:56:44.910Z,73844.03
2022-10-09T06:57:17.526Z,73842.03
2022-10-09T06:57:50.070Z,73842.03
2022-10-09T06:58:25.538Z,73844.03
2022-10-09T06:59:00.542Z,73836.03